Time;durP1;ratioP1;P1;durP2;ratioP2;P2;SDS_P1;SDS_P2;PMS_P1;PMS_P2;Temp;Humidity;BMP_temperature;BMP_pressure;BME280_temperature;BME280_humidity;BME280_pressure;Samples;Min_cycle;Max_cycle;Signal;HPM_P1;HPM_P2
2022/01/05 00:00:10;;;;;;;2.03;1.00;;;8.00;98.40;;;;;;20926124;28;20207;-64
2022/01/05 00:10:11;;;;;;;1.67;1.33;;;8.00;98.70;;;;;;20925207;28;20230;-63
2022/01/05 00:20:13;;;;;;;1.10;1.00;;;8.00;98.70;;;;;;20924608;28;20202;-64
2022/01/05 00:30:15;;;;;;;1.10;1.00;;;8.10;98.60;;;;;;20923069;28;20701;-63
2022/01/05 00:40:17;;;;;;;1.40;1.20;;;8.20;98.50;;;;;;20921689;28;20289;-63
2022/01/05 00:50:19;;;;;;;1.23;1.13;;;8.20;98.50;;;;;;20922025;28;20243;-63
2022/01/05 01:00:20;;;;;;;2.03;1.20;;;8.20;98.70;;;;;;20903724;28;20201;-63
2022/01/05 01:10:22;;;;;;;1.87;1.10;;;8.20;98.80;;;;;;20919315;28;20253;-63
2022/01/05 01:20:24;;;;;;;1.73;1.00;;;8.20;98.50;;;;;;20918542;28;20209;-62
2022/01/05 01:30:26;;;;;;;1.20;1.10;;;8.10;98.70;;;;;;20918833;28;20300;-63
2022/01/05 01:40:28;;;;;;;1.43;1.20;;;8.30;98.50;;;;;;20916398;28;20290;-63
2022/01/05 01:50:29;;;;;;;2.20;1.50;;;8.20;98.50;;;;;;20917610;28;20753;-64
2022/01/05 02:00:31;;;;;;;1.73;1.30;;;8.20;98.70;;;;;;20917127;28;20208;-64
2022/01/05 02:10:36;;;;;;;1.40;1.30;;;8.10;98.40;;;;;;20917023;28;20275;-64
2022/01/05 02:20:37;;;;;;;2.10;1.20;;;8.10;98.60;;;;;;20916631;28;20269;-63
2022/01/05 02:30:42;;;;;;;1.93;1.33;;;8.00;98.70;;;;;;20914269;28;20243;-64
2022/01/05 02:40:43;;;;;;;1.30;1.20;;;8.10;99.00;;;;;;20914035;28;20752;-64
2022/01/05 02:50:45;;;;;;;1.23;1.00;;;8.10;98.70;;;;;;20923082;28;20564;-63
2022/01/05 03:00:47;;;;;;;0.90;0.90;;;8.10;98.60;;;;;;20931084;28;20265;-63
2022/01/05 03:10:49;;;;;;;1.10;1.00;;;8.20;98.90;;;;;;20930386;28;20234;-64
2022/01/05 03:20:51;;;;;;;1.10;1.00;;;8.10;99.10;;;;;;20929583;28;20269;-64
2022/01/05 03:30:53;;;;;;;0.80;0.80;;;8.10;98.60;;;;;;20928495;28;20235;-64
2022/01/05 03:40:54;;;;;;;1.13;1.03;;;8.20;98.60;;;;;;20926907;28;20269;-64
2022/01/05 03:50:56;;;;;;;1.00;0.90;;;8.10;98.40;;;;;;20925583;28;20234;-63
2022/01/05 04:00:58;;;;;;;2.70;1.00;;;8.10;98.30;;;;;;20925130;28;20207;-64
2022/01/05 04:11:00;;;;;;;1.47;1.10;;;8.20;98.30;;;;;;20925378;28;20306;-63
2022/01/05 04:21:02;;;;;;;1.00;0.90;;;8.20;98.60;;;;;;20924644;28;20211;-64
2022/01/05 04:31:03;;;;;;;1.00;0.90;;;8.20;98.60;;;;;;20923892;28;20680;-63
2022/01/05 04:41:05;;;;;;;1.03;1.00;;;8.20;98.30;;;;;;20921995;28;20239;-63
2022/01/05 04:51:07;;;;;;;0.70;0.70;;;8.30;98.30;;;;;;20922329;28;20231;-63
2022/01/05 05:01:08;;;;;;;2.37;0.80;;;7.70;97.30;;;;;;20921570;28;20202;-64
2022/01/05 05:11:10;;;;;;;0.87;0.70;;;6.70;96.00;;;;;;20920500;28;20229;-64
2022/01/05 05:21:12;;;;;;;0.80;0.80;;;6.50;95.80;;;;;;20919790;28;20263;-64
2022/01/05 05:31:14;;;;;;;0.60;0.60;;;6.00;95.60;;;;;;20917495;28;20233;-64
2022/01/05 05:41:16;;;;;;;0.70;0.70;;;6.00;95.70;;;;;;20916866;28;20244;-64
2022/01/05 05:51:17;;;;;;;1.10;0.80;;;5.70;96.10;;;;;;20917436;28;20641;-64
2022/01/05 06:01:20;;;;;;;1.20;1.00;;;5.60;96.80;;;;;;20916760;28;20211;-64
2022/01/05 06:11:22;;;;;;;2.37;1.20;;;5.60;97.10;;;;;;20915767;28;20263;-64
2022/01/05 06:21:24;;;;;;;2.60;1.20;;;5.90;96.40;;;;;;20914704;28;20206;-63
2022/01/05 06:31:26;;;;;;;3.70;1.40;;;6.00;95.40;;;;;;20914909;28;20231;-63
2022/01/05 06:41:28;;;;;;;5.77;1.57;;;5.80;94.60;;;;;;20913602;28;20236;-64
2022/01/05 06:51:30;;;;;;;2.23;1.30;;;5.80;95.00;;;;;;20914377;28;20610;-66
2022/01/05 07:01:31;;;;;;;12.23;6.03;;;5.70;94.80;;;;;;20917639;28;20262;-63
2022/01/05 07:11:35;;;;;;;5.10;2.72;;;5.70;95.20;;;;;;20912768;28;20513;-64
2022/01/05 07:21:37;;;;;;;4.77;2.43;;;5.80;94.60;;;;;;20912792;28;20238;-63
2022/01/05 07:31:39;;;;;;;4.80;2.23;;;5.90;94.00;;;;;;20911488;28;20691;-62
2022/01/05 07:41:41;;;;;;;3.80;2.20;;;6.00;94.10;;;;;;20925889;28;20703;-64
2022/01/05 07:51:44;;;;;;;7.40;3.10;;;6.00;93.80;;;;;;20926273;28;20283;-63
2022/01/05 08:01:46;;;;;;;4.57;2.20;;;5.90;93.40;;;;;;20923926;28;20235;-62
2022/01/05 08:11:48;;;;;;;5.17;2.07;;;5.70;92.10;;;;;;20906236;28;20704;-64
2022/01/05 08:21:50;;;;;;;9.57;2.47;;;5.60;91.10;;;;;;20922282;28;20259;-63
2022/01/05 08:31:51;;;;;;;6.53;1.87;;;5.40;90.40;;;;;;20905083;28;20238;-64
2022/01/05 08:41:53;;;;;;;7.77;1.90;;;5.30;88.70;;;;;;20920603;28;20335;-63
2022/01/05 08:51:55;;;;;;;3.30;1.90;;;5.20;88.10;;;;;;20921118;28;20236;-64
2022/01/05 09:01:57;;;;;;;5.00;2.10;;;5.60;86.90;;;;;;20920602;28;20231;-63
2022/01/05 09:11:59;;;;;;;5.30;1.90;;;5.60;88.60;;;;;;20917719;28;20281;-66
2022/01/05 09:22:02;;;;;;;3.37;1.60;;;5.70;89.10;;;;;;20917180;28;20262;-63
2022/01/05 09:32:22;;;;;;;5.57;1.90;;;5.60;87.10;;;;;;20917518;28;20207;-63
2022/01/05 09:42:24;;;;;;;5.17;1.67;;;5.60;84.40;;;;;;20915785;28;20296;-64
2022/01/05 09:52:27;;;;;;;6.37;1.93;;;5.60;83.30;;;;;;20916708;28;20209;-64
2022/01/05 10:02:30;;;;;;;4.50;1.73;;;5.40;80.30;;;;;;20915006;28;20214;-63
2022/01/05 10:12:32;;;;;;;11.30;1.70;;;5.50;80.80;;;;;;20915137;28;20211;-64
2022/01/05 10:22:39;;;;;;;18.73;9.30;;;5.70;80.70;;;;;;20913698;28;20208;-62
2022/01/05 10:32:45;;;;;;;6.70;2.10;;;5.90;79.70;;;;;;20914362;28;20274;-63
2022/01/05 10:42:49;;;;;;;10.30;2.10;;;5.80;79.20;;;;;;20912245;28;20271;-64
2022/01/05 10:52:54;;;;;;;10.90;2.30;;;5.60;79.20;;;;;;20912337;28;20212;-63
2022/01/05 11:02:56;;;;;;;10.57;2.40;;;5.50;79.90;;;;;;20894138;28;20228;-63
2022/01/05 11:12:58;;;;;;;13.37;2.63;;;5.50;81.10;;;;;;20923394;28;20713;-63
2022/01/05 11:23:00;;;;;;;10.23;2.40;;;5.70;81.20;;;;;;20928106;28;20228;-62
2022/01/05 11:33:02;;;;;;;3.80;1.90;;;5.70;80.00;;;;;;20925639;28;20260;-62
2022/01/05 11:43:07;;;;;;;6.77;1.90;;;5.60;79.20;;;;;;20925738;28;20314;-62
2022/01/05 11:53:09;;;;;;;4.47;2.03;;;5.60;80.00;;;;;;20927785;28;20208;-65
2022/01/05 12:03:11;;;;;;;9.13;2.30;;;5.80;79.20;;;;;;20923495;28;20256;-65
2022/01/05 12:13:13;;;;;;;5.53;1.90;;;5.80;79.40;;;;;;20924437;28;20209;-63
2022/01/05 12:23:26;;;;;;;4.67;1.80;;;5.80;78.80;;;;;;20920479;28;20232;-62
2022/01/05 12:33:44;;;;;;;4.70;1.90;;;5.80;77.40;;;;;;20903910;28;20202;-64
2022/01/05 12:43:46;;;;;;;11.07;2.50;;;5.90;77.70;;;;;;20921894;28;20302;-66
2022/01/05 12:54:01;;;;;;;6.77;1.80;;;6.00;76.80;;;;;;20921051;28;20299;-62
2022/01/05 13:04:11;;;;;;;7.03;1.90;;;5.90;76.60;;;;;;20901238;28;20217;-61
2022/01/05 13:14:28;;;;;;;5.33;1.70;;;6.00;76.90;;;;;;20919803;28;20195;-63
2022/01/05 13:24:43;;;;;;;8.47;2.07;;;5.90;76.80;;;;;;20918790;28;20270;-61
2022/01/05 13:34:48;;;;;;;7.67;1.90;;;5.90;77.70;;;;;;20916862;28;20244;-64
2022/01/05 13:44:49;;;;;;;9.47;2.23;;;5.90;77.90;;;;;;20915601;28;20225;-63
2022/01/05 13:54:51;;;;;;;6.70;2.17;;;5.90;78.80;;;;;;20916435;28;20679;-63
2022/01/05 14:04:56;;;;;;;7.80;2.17;;;5.80;78.90;;;;;;20915571;28;20296;-64
2022/01/05 14:14:59;;;;;;;8.77;2.23;;;5.90;79.40;;;;;;20915497;28;20196;-65
2022/01/05 14:25:03;;;;;;;7.13;2.00;;;5.80;79.30;;;;;;20914833;28;20710;-64
2022/01/05 14:35:15;;;;;;;6.10;1.90;;;5.90;80.00;;;;;;20896548;28;20720;-62
2022/01/05 14:45:17;;;;;;;9.00;3.00;;;5.70;79.00;;;;;;20918988;28;20459;-65
2022/01/05 14:55:19;;;;;;;8.80;2.40;;;5.80;79.40;;;;;;20930869;28;20205;-63
2022/01/05 15:05:21;;;;;;;4.47;1.87;;;5.60;80.00;;;;;;20912483;28;20330;-62
2022/01/05 15:15:23;;;;;;;6.37;2.10;;;5.50;79.50;;;;;;20929064;28;20203;-63
2022/01/05 15:25:26;;;;;;;6.07;2.23;;;5.50;79.60;;;;;;20927409;28;20271;-61
2022/01/05 15:35:28;;;;;;;5.27;2.50;;;5.20;80.00;;;;;;20927491;28;20707;-63
2022/01/05 15:45:29;;;;;;;6.73;2.47;;;5.30;81.50;;;;;;20927108;28;20287;-64
2022/01/05 15:55:42;;;;;;;5.50;2.30;;;5.30;81.50;;;;;;20925968;28;20265;-63
2022/01/05 16:05:44;;;;;;;6.57;2.30;;;5.40;80.80;;;;;;20926250;28;20223;-64
2022/01/05 16:15:47;;;;;;;5.33;1.93;;;5.40;81.00;;;;;;20925244;28;20257;-64
2022/01/05 16:25:49;;;;;;;5.73;1.97;;;5.50;80.60;;;;;;20924223;28;20287;-64
2022/01/05 16:35:50;;;;;;;8.90;1.93;;;5.50;81.10;;;;;;20923525;28;20711;-64
2022/01/05 16:45:52;;;;;;;5.37;2.23;;;5.40;80.20;;;;;;20922864;28;20237;-64
2022/01/05 16:55:57;;;;;;;5.93;2.30;;;5.30;80.80;;;;;;20925938;28;20205;-64
2022/01/05 17:06:00;;;;;;;5.33;2.23;;;5.30;80.90;;;;;;20919587;28;20224;-65
2022/01/05 17:16:02;;;;;;;8.27;1.90;;;5.20;81.40;;;;;;20920412;28;20212;-67
2022/01/05 17:26:04;;;;;;;8.27;2.30;;;5.30;82.10;;;;;;20918314;28;20268;-71
2022/01/05 17:47:31;;;;;;;7.27;2.40;;;5.50;81.50;;;;;;20916772;28;20208;-64
2022/01/05 17:57:32;;;;;;;9.40;2.80;;;5.60;81.80;;;;;;20917470;28;20206;-67
2022/01/05 18:07:34;;;;;;;7.30;2.47;;;5.60;81.80;;;;;;20915256;28;20264;-70
2022/01/05 18:17:36;;;;;;;6.87;2.10;;;5.70;81.90;;;;;;20915327;28;20643;-64
2022/01/05 18:27:39;;;;;;;6.30;2.37;;;5.80;82.00;;;;;;20915888;28;20278;-64
2022/01/05 18:38:00;;;;;;;5.10;2.20;;;5.70;82.80;;;;;;20914576;28;20240;-63
2022/01/05 18:48:03;;;;;;;7.93;2.60;;;5.70;83.30;;;;;;20914809;28;20695;-64
2022/01/05 18:58:04;;;;;;;10.50;2.50;;;5.60;83.50;;;;;;20914288;28;20204;-64
2022/01/05 19:08:06;;;;;;;8.10;2.50;;;5.50;84.10;;;;;;20912808;28;20228;-62
2022/01/05 19:18:08;;;;;;;9.87;2.30;;;5.40;85.50;;;;;;20911544;28;20204;-64
2022/01/05 19:28:16;;;;;;;5.73;2.30;;;5.30;86.50;;;;;;20913868;28;20231;-65
2022/01/05 19:38:18;;;;;;;10.70;2.60;;;5.30;87.30;;;;;;20911372;28;20231;-65
2022/01/05 19:48:21;;;;;;;8.93;2.60;;;5.30;87.90;;;;;;20927323;28;20231;-70
2022/01/05 20:03:37;;;;;;;8.50;3.27;;;5.40;89.10;;;;;;20984315;28;20566;-68
2022/01/05 20:13:41;;;;;;;8.67;3.10;;;5.40;89.70;;;;;;20982527;28;20199;-69
2022/01/05 20:23:44;;;;;;;5.73;2.50;;;5.40;89.70;;;;;;20941889;28;20212;-68
2022/01/05 20:33:46;;;;;;;10.23;3.07;;;5.30;88.90;;;;;;20896054;28;20204;-70
2022/01/05 20:43:48;;;;;;;5.27;2.93;;;5.30;89.20;;;;;;20898481;28;20221;-69
2022/01/05 20:53:51;;;;;;;8.60;2.77;;;5.40;90.00;;;;;;20897735;28;20209;-68
2022/01/05 21:03:53;;;;;;;11.10;3.40;;;5.40;90.10;;;;;;20892936;28;20471;-63
2022/01/05 21:13:54;;;;;;;10.60;2.60;;;6.10;90.00;;;;;;20847033;28;20210;-63
2022/01/05 21:23:57;;;;;;;10.17;2.70;;;5.90;89.30;;;;;;20840836;28;20272;-64
2022/01/05 21:33:58;;;;;;;6.37;2.67;;;5.90;89.90;;;;;;20840645;28;20212;-64
2022/01/05 21:44:00;;;;;;;8.00;2.70;;;5.90;89.20;;;;;;20840719;28;20210;-66
2022/01/05 21:54:02;;;;;;;6.93;2.90;;;5.90;89.80;;;;;;20839664;28;20227;-64
2022/01/05 22:04:04;;;;;;;6.83;2.87;;;6.00;90.00;;;;;;20837988;28;20548;-65
2022/01/05 22:14:06;;;;;;;4.97;2.60;;;5.90;89.90;;;;;;20836618;28;20274;-63
2022/01/05 22:24:07;;;;;;;8.80;2.70;;;6.00;90.10;;;;;;20833219;28;20657;-63
2022/01/05 22:34:09;;;;;;;7.47;3.20;;;6.10;90.30;;;;;;20833034;28;20224;-63
2022/01/05 22:44:11;;;;;;;11.33;3.73;;;6.10;90.40;;;;;;20834428;28;20538;-65
2022/01/05 22:54:13;;;;;;;6.90;2.80;;;6.10;90.20;;;;;;20833747;28;20573;-66
2022/01/05 23:04:15;;;;;;;8.10;2.70;;;6.10;90.20;;;;;;20833465;28;20550;-64
2022/01/05 23:14:16;;;;;;;8.70;2.73;;;6.10;90.50;;;;;;20830600;28;20228;-65
2022/01/05 23:24:18;;;;;;;5.50;2.60;;;6.10;90.80;;;;;;20826642;28;20208;-65
2022/01/05 23:34:20;;;;;;;10.17;3.50;;;6.10;91.10;;;;;;20830957;28;20589;-67
2022/01/05 23:44:22;;;;;;;11.67;3.80;;;6.10;91.10;;;;;;20830266;28;20570;-66
2022/01/05 23:54:24;;;;;;;8.17;3.13;;;6.10;91.50;;;;;;20829728;28;20238;-63
